Time;durP1;ratioP1;P1;durP2;ratioP2;P2;SDS_P1;SDS_P2;PMS_P1;PMS_P2;Temp;Humidity;BMP_temperature;BMP_pressure;BME280_temperature;BME280_humidity;BME280_pressure;Samples;Min_cycle;Max_cycle;Signal;HPM_P1;HPM_P2
2022/01/15 00:01:50;;;;;;;;;;;5.20;68.80;;;;;;5076380;28;19908;-64
2022/01/15 00:04:15;;;;;;;;;;;5.20;68.90;;;;;;5076213;28;19932;-66
2022/01/15 00:06:41;;;;;;;;;;;5.20;68.70;;;;;;5075118;28;19916;-66
2022/01/15 00:09:07;;;;;;;;;;;5.20;68.50;;;;;;5076529;28;19951;-67
2022/01/15 00:11:34;;;;;;;;;;;5.20;67.80;;;;;;5076402;28;20034;-67
2022/01/15 00:14:12;;;;;;;;;;;5.30;68.00;;;;;;5075922;28;19916;-64
2022/01/15 00:16:46;;;;;;;;;;;5.30;67.40;;;;;;5076177;28;19954;-66
2022/01/15 00:19:14;;;;;;;;;;;5.30;67.40;;;;;;5075975;28;19920;-66
2022/01/15 00:21:39;;;;;;;;;;;5.30;67.30;;;;;;5076035;28;19985;-65
2022/01/15 00:24:06;;;;;;;;;;;5.30;67.60;;;;;;5075824;28;19912;-65
2022/01/15 00:26:32;;;;;;;;;;;5.20;67.40;;;;;;5076457;28;20312;-65
2022/01/15 00:28:58;;;;;;;;;;;5.10;67.60;;;;;;5077128;28;19968;-67
2022/01/15 00:31:23;;;;;;;;;;;5.20;67.30;;;;;;5075643;28;20005;-67
2022/01/15 00:33:49;;;;;;;;;;;5.30;66.40;;;;;;5075617;28;19923;-67
2022/01/15 00:36:15;;;;;;;;;;;5.30;66.80;;;;;;5075731;28;19909;-66
2022/01/15 00:38:41;;;;;;;;;;;5.40;66.60;;;;;;5075997;28;19962;-66
2022/01/15 00:41:07;;;;;;;;;;;5.30;66.30;;;;;;5075656;28;20319;-66
2022/01/15 00:43:32;;;;;;;;;;;5.20;66.70;;;;;;5075433;28;19909;-66
2022/01/15 00:45:58;;;;;;;;;;;5.20;66.50;;;;;;5075590;28;19909;-67
2022/01/15 00:48:24;;;;;;;;;;;5.20;66.60;;;;;;5075481;28;19912;-65
2022/01/15 00:50:50;;;;;;;;;;;5.10;67.10;;;;;;5075582;28;19915;-66
2022/01/15 00:53:15;;;;;;;;;;;5.00;67.60;;;;;;5075468;28;20391;-68
2022/01/15 00:55:41;;;;;;;;;;;5.00;67.80;;;;;;5075555;28;19931;-65
2022/01/15 00:58:06;;;;;;;;;;;5.00;67.90;;;;;;5075505;28;19909;-64
2022/01/15 01:00:32;;;;;;;;;;;5.00;67.70;;;;;;5075407;28;19946;-65
2022/01/15 01:02:58;;;;;;;;;;;5.00;67.60;;;;;;5075250;28;19919;-64
2022/01/15 01:05:24;;;;;;;;;;;5.00;68.00;;;;;;5075269;28;20042;-67
2022/01/15 01:07:49;;;;;;;;;;;5.10;67.70;;;;;;5075199;28;19966;-66
2022/01/15 01:23:02;;;;;;;;;;;5.00;67.50;;;;;;5074716;28;20376;-66
2022/01/15 01:25:35;;;;;;;;;;;4.80;68.50;;;;;;5074809;28;20075;-64
2022/01/15 01:28:22;;;;;;;;;;;4.70;68.70;;;;;;5074860;28;19908;-65
2022/01/15 01:31:00;;;;;;;;;;;4.70;69.20;;;;;;5074780;28;20272;-63
2022/01/15 01:38:52;;;;;;;;;;;4.90;68.00;;;;;;5074769;28;19956;-63
2022/01/15 01:41:20;;;;;;;;;;;4.90;67.80;;;;;;5073292;28;19995;-64
2022/01/15 01:43:50;;;;;;;;;;;5.00;67.60;;;;;;5074365;28;19913;-66
2022/01/15 01:48:42;;;;;;;;;;;5.00;67.30;;;;;;5074697;28;20535;-65
2022/01/15 01:51:08;;;;;;;;;;;5.10;66.90;;;;;;5074527;28;19915;-64
2022/01/15 01:53:37;;;;;;;;;;;5.00;67.40;;;;;;5072796;28;19923;-64
2022/01/15 01:56:05;;;;;;;;;;;4.90;67.90;;;;;;5074334;28;20101;-65
2022/01/15 01:58:31;;;;;;;;;;;4.90;67.50;;;;;;5074143;28;19908;-64
2022/01/15 02:00:56;;;;;;;;;;;5.00;67.20;;;;;;5073934;28;19919;-64
2022/01/15 02:03:22;;;;;;;;;;;4.90;66.90;;;;;;5074031;28;20425;-64
2022/01/15 02:05:47;;;;;;;;;;;5.00;66.40;;;;;;5074072;28;19915;-65
2022/01/15 02:08:14;;;;;;;;;;;5.00;66.10;;;;;;5074136;28;19916;-65
2022/01/15 02:10:40;;;;;;;;;;;5.20;65.50;;;;;;5074019;28;19923;-64
2022/01/15 02:13:08;;;;;;;;;;;5.30;65.30;;;;;;5073807;28;19908;-65
2022/01/15 02:15:36;;;;;;;;;;;5.10;66.30;;;;;;5074056;28;19913;-64
2022/01/15 02:18:02;;;;;;;;;;;5.00;66.80;;;;;;5073796;28;19916;-65
2022/01/15 02:25:42;;;;;;;;;;;4.80;67.60;;;;;;5074220;28;19953;-64
2022/01/15 02:28:08;;;;;;;;;;;4.80;67.80;;;;;;5073373;28;19912;-64
2022/01/15 02:30:33;;;;;;;;;;;4.80;68.30;;;;;;5073579;28;19970;-64
2022/01/15 02:32:59;;;;;;;;;;;4.80;68.30;;;;;;5073481;28;20014;-64
2022/01/15 02:35:24;;;;;;;;;;;4.90;68.00;;;;;;5073525;28;20365;-65
2022/01/15 02:37:50;;;;;;;;;;;5.00;67.70;;;;;;5073584;28;20429;-65
2022/01/15 02:40:16;;;;;;;;;;;5.00;67.90;;;;;;5073580;28;19915;-67
2022/01/15 02:42:41;;;;;;;;;;;4.90;68.10;;;;;;5073351;28;20372;-65
2022/01/15 02:45:08;;;;;;;;;;;4.80;68.30;;;;;;5073638;28;19915;-67
2022/01/15 02:50:21;;;;;;;;;;;5.00;68.00;;;;;;5074001;28;19978;-65
2022/01/15 02:52:47;;;;;;;;;;;4.80;68.10;;;;;;5072135;28;19909;-66
2022/01/15 02:55:13;;;;;;;;;;;4.80;68.40;;;;;;5073314;28;20388;-66
2022/01/15 02:57:38;;;;;;;;;;;4.90;68.10;;;;;;5073174;28;20336;-66
2022/01/15 03:00:04;;;;;;;;;;;4.80;68.50;;;;;;5072909;28;19908;-66
2022/01/15 03:02:32;;;;;;;;;;;4.80;68.80;;;;;;5073374;28;19909;-65
2022/01/15 03:04:57;;;;;;;;;;;4.80;68.80;;;;;;5073058;28;19916;-66
2022/01/15 03:07:23;;;;;;;;;;;4.80;68.60;;;;;;5071995;28;19912;-66
2022/01/15 03:09:48;;;;;;;;;;;4.80;69.00;;;;;;5073164;28;19909;-66
2022/01/15 03:12:14;;;;;;;;;;;4.80;68.80;;;;;;5073244;28;19915;-68
2022/01/15 03:14:42;;;;;;;;;;;4.80;69.20;;;;;;5073193;28;20003;-64
2022/01/15 03:17:07;;;;;;;;;;;4.80;69.00;;;;;;5073082;28;19916;-65
2022/01/15 03:19:33;;;;;;;;;;;4.80;69.60;;;;;;5073257;28;20315;-65
2022/01/15 03:21:58;;;;;;;;;;;4.90;69.40;;;;;;5073047;28;19989;-66
2022/01/15 03:24:24;;;;;;;;;;;4.80;69.20;;;;;;5072830;28;19912;-66
2022/01/15 03:26:49;;;;;;;;;;;4.70;69.20;;;;;;5073254;28;19916;-63
2022/01/15 03:29:15;;;;;;;;;;;4.70;69.40;;;;;;5073038;28;19999;-62
2022/01/15 03:31:40;;;;;;;;;;;4.40;70.00;;;;;;5072982;28;20280;-64
2022/01/15 03:34:06;;;;;;;;;;;4.20;70.90;;;;;;5072881;28;20287;-64
2022/01/15 03:36:31;;;;;;;;;;;4.30;71.30;;;;;;5073077;28;19951;-64
2022/01/15 03:38:57;;;;;;;;;;;4.40;71.10;;;;;;5073015;28;19908;-66
2022/01/15 03:41:23;;;;;;;;;;;4.60;70.80;;;;;;5072904;28;20356;-66
2022/01/15 03:43:48;;;;;;;;;;;4.60;70.50;;;;;;5073330;28;19908;-65
2022/01/15 03:46:14;;;;;;;;;;;4.70;71.30;;;;;;5072838;28;19909;-64
2022/01/15 03:48:39;;;;;;;;;;;4.60;70.20;;;;;;5072831;28;19916;-67
2022/01/15 03:51:05;;;;;;;;;;;4.60;70.10;;;;;;5072833;28;19924;-67
2022/01/15 03:53:30;;;;;;;;;;;4.70;69.90;;;;;;5072697;28;20002;-66
2022/01/15 03:55:56;;;;;;;;;;;4.80;69.70;;;;;;5072675;28;19912;-66
2022/01/15 03:58:21;;;;;;;;;;;4.90;69.10;;;;;;5072891;28;19916;-67
2022/01/15 04:00:47;;;;;;;;;;;4.90;69.60;;;;;;5077133;28;20009;-66
2022/01/15 04:03:13;;;;;;;;;;;4.90;70.10;;;;;;5076969;28;19912;-67
2022/01/15 04:05:39;;;;;;;;;;;5.00;70.30;;;;;;5076950;28;20323;-66
2022/01/15 04:08:05;;;;;;;;;;;5.00;70.80;;;;;;5074934;28;19908;-66
2022/01/15 04:10:31;;;;;;;;;;;5.10;71.30;;;;;;5076401;28;19909;-64
2022/01/15 04:12:57;;;;;;;;;;;5.10;71.70;;;;;;5076173;28;20082;-65
2022/01/15 04:15:22;;;;;;;;;;;5.10;72.00;;;;;;5076266;28;19924;-66
2022/01/15 04:17:49;;;;;;;;;;;5.20;72.40;;;;;;5076281;28;19909;-66
2022/01/15 04:20:20;;;;;;;;;;;5.10;71.90;;;;;;5075940;28;20280;-63
2022/01/15 04:22:46;;;;;;;;;;;5.00;73.30;;;;;;5075919;28;19912;-64
2022/01/15 04:25:12;;;;;;;;;;;5.00;73.90;;;;;;5075876;28;20313;-63
2022/01/15 04:27:38;;;;;;;;;;;4.90;73.60;;;;;;5076018;28;20383;-65
2022/01/15 04:30:05;;;;;;;;;;;5.00;74.70;;;;;;5076230;28;19912;-65
2022/01/15 04:32:31;;;;;;;;;;;5.00;74.90;;;;;;5075721;28;19978;-64
2022/01/15 04:34:57;;;;;;;;;;;5.00;74.90;;;;;;5075773;28;20411;-64
2022/01/15 04:37:24;;;;;;;;;;;5.10;74.70;;;;;;5075705;28;19912;-64
2022/01/15 04:39:51;;;;;;;;;;;5.30;74.60;;;;;;5075832;28;19908;-65
2022/01/15 04:42:20;;;;;;;;;;;5.40;73.40;;;;;;5075748;28;19933;-65
2022/01/15 04:44:46;;;;;;;;;;;5.40;73.00;;;;;;5075434;28;19917;-68
2022/01/15 04:47:12;;;;;;;;;;;5.30;73.50;;;;;;5075862;28;19915;-67
2022/01/15 04:49:37;;;;;;;;;;;5.20;73.60;;;;;;5075574;28;20356;-66
2022/01/15 04:52:03;;;;;;;;;;;5.00;74.40;;;;;;5075587;28;19920;-66
2022/01/15 04:54:29;;;;;;;;;;;5.10;74.40;;;;;;5075337;28;20330;-67
2022/01/15 04:56:54;;;;;;;;;;;5.10;74.00;;;;;;5075491;28;19913;-68
2022/01/15 04:59:20;;;;;;;;;;;5.40;71.80;;;;;;5075747;28;20378;-65
2022/01/15 05:01:46;;;;;;;;;;;5.40;71.40;;;;;;5075375;28;19919;-66
2022/01/15 05:04:12;;;;;;;;;;;5.40;71.30;;;;;;5073821;28;19908;-68
2022/01/15 05:06:37;;;;;;;;;;;5.40;71.40;;;;;;5075398;28;19940;-68
2022/01/15 05:09:06;;;;;;;;;;;5.40;71.20;;;;;;5074963;28;19916;-66
2022/01/15 05:11:45;;;;;;;;;;;5.40;70.60;;;;;;5074280;28;19943;-68
2022/01/15 05:14:11;;;;;;;;;;;5.50;70.70;;;;;;5074844;28;20429;-67
2022/01/15 05:16:37;;;;;;;;;;;5.40;71.80;;;;;;5075150;28;19908;-68
2022/01/15 05:19:03;;;;;;;;;;;5.30;72.90;;;;;;5074662;28;19999;-68
2022/01/15 05:21:28;;;;;;;;;;;5.50;72.00;;;;;;5074863;28;20275;-67
2022/01/15 05:23:54;;;;;;;;;;;5.60;71.70;;;;;;5075186;28;19908;-67
2022/01/15 05:26:20;;;;;;;;;;;5.60;71.80;;;;;;5074838;28;19909;-67
2022/01/15 05:28:45;;;;;;;;;;;5.70;71.60;;;;;;5074827;28;19965;-66
2022/01/15 05:31:12;;;;;;;;;;;6.00;72.10;;;;;;5074627;28;19935;-64
2022/01/15 05:33:37;;;;;;;;;;;5.70;73.20;;;;;;5074298;28;19923;-68
2022/01/15 05:36:03;;;;;;;;;;;5.70;74.00;;;;;;5074652;28;19940;-66
2022/01/15 05:38:28;;;;;;;;;;;5.70;74.70;;;;;;5074387;28;19977;-66
2022/01/15 05:40:54;;;;;;;;;;;5.70;74.30;;;;;;5074505;28;19908;-65
2022/01/15 05:43:20;;;;;;;;;;;5.70;75.20;;;;;;5074414;28;20364;-65
2022/01/15 05:45:45;;;;;;;;;;;5.70;74.60;;;;;;5074244;28;19922;-66
2022/01/15 05:48:11;;;;;;;;;;;5.80;73.70;;;;;;5074097;28;20387;-66
2022/01/15 05:50:37;;;;;;;;;;;6.50;68.80;;;;;;5074173;28;19909;-66
2022/01/15 05:53:02;;;;;;;;;;;6.60;67.80;;;;;;5074000;28;19912;-66
2022/01/15 05:55:28;;;;;;;;;;;7.00;65.50;;;;;;5074148;28;19912;-67
2022/01/15 05:57:54;;;;;;;;;;;7.40;63.70;;;;;;5073855;28;19932;-66
2022/01/15 06:00:19;;;;;;;;;;;7.90;61.20;;;;;;5074310;28;19915;-66
2022/01/15 06:02:45;;;;;;;;;;;8.20;59.70;;;;;;5073902;28;20391;-67
2022/01/15 06:05:10;;;;;;;;;;;8.40;59.20;;;;;;5073947;28;20287;-65
2022/01/15 06:07:36;;;;;;;;;;;8.60;58.50;;;;;;5074097;28;19908;-66
2022/01/15 06:10:02;;;;;;;;;;;8.80;57.80;;;;;;5073697;28;19991;-66
2022/01/15 06:12:31;;;;;;;;;;;9.00;57.30;;;;;;5081469;28;19909;-67
2022/01/15 06:14:57;;;;;;;;;;;9.10;56.90;;;;;;5074852;28;20003;-66
2022/01/15 06:17:22;;;;;;;;;;;9.30;56.10;;;;;;5073661;28;19958;-67
2022/01/15 06:19:48;;;;;;;;;;;9.30;55.90;;;;;;5073818;28;19909;-66
2022/01/15 06:22:13;;;;;;;;;;;9.40;55.70;;;;;;5072065;28;19908;-66
2022/01/15 06:24:39;;;;;;;;;;;9.40;56.00;;;;;;5073342;28;19999;-66
2022/01/15 06:27:05;;;;;;;;;;;9.50;55.20;;;;;;5073332;28;19917;-66
2022/01/15 06:29:30;;;;;;;;;;;9.50;55.10;;;;;;5073355;28;19908;-66
2022/01/15 06:31:56;;;;;;;;;;;9.50;55.00;;;;;;5073293;28;19920;-67
2022/01/15 06:34:21;;;;;;;;;;;9.50;55.30;;;;;;5073135;28;19916;-67
2022/01/15 06:36:47;;;;;;;;;;;9.50;54.90;;;;;;5073503;28;19908;-66
2022/01/15 06:39:13;;;;;;;;;;;9.60;54.80;;;;;;5073577;28;20026;-67
2022/01/15 06:41:38;;;;;;;;;;;9.60;54.70;;;;;;5073229;28;19949;-66
2022/01/15 06:44:04;;;;;;;;;;;9.50;54.90;;;;;;5073194;28;19908;-66
2022/01/15 06:46:29;;;;;;;;;;;9.50;55.00;;;;;;5073293;28;20364;-66
2022/01/15 06:48:55;;;;;;;;;;;9.50;55.00;;;;;;5071885;28;19909;-65
2022/01/15 06:51:20;;;;;;;;;;;9.40;55.20;;;;;;5073381;28;19909;-67
2022/01/15 06:53:46;;;;;;;;;;;9.40;55.40;;;;;;5073078;28;20367;-66
2022/01/15 06:56:11;;;;;;;;;;;9.30;55.30;;;;;;5073045;28;19909;-66
2022/01/15 06:58:37;;;;;;;;;;;9.30;55.30;;;;;;5073483;28;19908;-65
2022/01/15 07:01:03;;;;;;;;;;;9.30;56.20;;;;;;5072827;28;19966;-66
2022/01/15 07:03:28;;;;;;;;;;;9.70;59.40;;;;;;5071849;28;19912;-62
2022/01/15 07:05:54;;;;;;;;;;;10.00;57.00;;;;;;5073039;28;19909;-64
2022/01/15 07:08:19;;;;;;;;;;;10.20;56.10;;;;;;5073057;28;19913;-61
2022/01/15 07:10:45;;;;;;;;;;;10.30;55.00;;;;;;5073029;28;19912;-63
2022/01/15 07:13:10;;;;;;;;;;;10.40;54.90;;;;;;5072819;28;20003;-62
2022/01/15 07:15:36;;;;;;;;;;;10.50;54.60;;;;;;5072808;28;19966;-61
2022/01/15 07:18:02;;;;;;;;;;;10.50;54.30;;;;;;5076112;28;20724;-62
2022/01/15 07:20:28;;;;;;;;;;;10.50;53.80;;;;;;5075210;28;20390;-60
2022/01/15 07:22:54;;;;;;;;;;;10.60;53.40;;;;;;5073181;28;19916;-59
2022/01/15 07:25:19;;;;;;;;;;;10.50;53.20;;;;;;5071608;28;20318;-61
2022/01/15 07:27:45;;;;;;;;;;;10.50;53.70;;;;;;5072862;28;19912;-63
2022/01/15 07:30:13;;;;;;;;;;;10.30;52.60;;;;;;5072916;28;20328;-63
2022/01/15 07:32:39;;;;;;;;;;;9.90;53.40;;;;;;5077432;28;19932;-61
2022/01/15 07:35:06;;;;;;;;;;;9.80;54.20;;;;;;5084955;28;19916;-62
2022/01/15 07:37:32;;;;;;;;;;;9.70;54.40;;;;;;5078970;28;20371;-62
2022/01/15 07:39:59;;;;;;;;;;;9.60;54.40;;;;;;5075615;28;19916;-63
2022/01/15 07:42:24;;;;;;;;;;;9.60;54.60;;;;;;5076747;28;19915;-62
2022/01/15 07:44:50;;;;;;;;;;;9.50;54.70;;;;;;5076576;28;19912;-61
2022/01/15 07:47:16;;;;;;;;;;;9.50;54.70;;;;;;5076677;28;19962;-61
2022/01/15 07:49:41;;;;;;;;;;;9.50;55.50;;;;;;5076536;28;20276;-62
2022/01/15 07:52:07;;;;;;;;;;;9.60;54.50;;;;;;5076693;28;19909;-62
2022/01/15 07:54:33;;;;;;;;;;;9.60;54.50;;;;;;5076571;28;20210;-62
2022/01/15 07:56:59;;;;;;;;;;;9.60;54.70;;;;;;5076308;28;19954;-60
2022/01/15 07:59:25;;;;;;;;;;;9.60;54.40;;;;;;5075365;28;19908;-62
2022/01/15 08:01:51;;;;;;;;;;;9.70;54.30;;;;;;5076631;28;19915;-60
2022/01/15 08:04:17;;;;;;;;;;;9.70;54.30;;;;;;5076301;28;20003;-61
2022/01/15 08:06:43;;;;;;;;;;;9.80;53.90;;;;;;5074761;28;19927;-61
2022/01/15 08:09:08;;;;;;;;;;;9.90;53.90;;;;;;5080637;28;19912;-62
2022/01/15 08:11:34;;;;;;;;;;;9.80;53.80;;;;;;5075864;28;19912;-62
2022/01/15 08:14:00;;;;;;;;;;;9.80;53.80;;;;;;5078209;28;19913;-60
2022/01/15 08:16:38;;;;;;;;;;;9.80;53.90;;;;;;5082653;28;19915;-59
2022/01/15 08:19:03;;;;;;;;;;;9.70;54.00;;;;;;5078371;28;19919;-60
2022/01/15 08:21:29;;;;;;;;;;;9.90;53.70;;;;;;5078162;28;19909;-61
2022/01/15 08:23:55;;;;;;;;;;;9.90;53.30;;;;;;5075374;28;19908;-63
2022/01/15 08:26:20;;;;;;;;;;;10.00;53.50;;;;;;5075359;28;19959;-62
2022/01/15 08:28:46;;;;;;;;;;;10.00;53.40;;;;;;5075245;28;20018;-64
2022/01/15 08:31:11;;;;;;;;;;;10.00;53.40;;;;;;5075036;28;20383;-65
2022/01/15 08:33:37;;;;;;;;;;;10.00;53.40;;;;;;5077821;28;19956;-64
2022/01/15 08:36:03;;;;;;;;;;;10.10;53.70;;;;;;5075125;28;19920;-66
2022/01/15 08:38:29;;;;;;;;;;;10.10;53.10;;;;;;5075137;28;20349;-63
2022/01/15 08:40:54;;;;;;;;;;;10.10;52.80;;;;;;5075145;28;19909;-63
2022/01/15 08:43:20;;;;;;;;;;;10.00;53.00;;;;;;5077673;28;19920;-63
2022/01/15 08:45:47;;;;;;;;;;;10.10;53.30;;;;;;5078985;28;20396;-62
2022/01/15 08:48:14;;;;;;;;;;;10.10;52.80;;;;;;5078374;28;20332;-64
2022/01/15 08:50:40;;;;;;;;;;;10.10;52.80;;;;;;5080754;28;20335;-62
2022/01/15 08:53:06;;;;;;;;;;;10.20;52.70;;;;;;5075384;28;19995;-64
2022/01/15 08:55:32;;;;;;;;;;;10.20;52.60;;;;;;5074803;28;19916;-63
2022/01/15 08:57:58;;;;;;;;;;;10.20;52.60;;;;;;5076532;28;19912;-64
2022/01/15 09:00:24;;;;;;;;;;;10.20;52.60;;;;;;5082466;28;20380;-69
2022/01/15 09:02:50;;;;;;;;;;;10.20;52.60;;;;;;5074721;28;19908;-60
2022/01/15 09:05:16;;;;;;;;;;;10.30;52.50;;;;;;5076361;28;20033;-57
2022/01/15 09:07:42;;;;;;;;;;;10.20;52.50;;;;;;5080099;28;19908;-63
2022/01/15 09:10:08;;;;;;;;;;;10.20;52.40;;;;;;5077180;28;19908;-66
2022/01/15 09:12:34;;;;;;;;;;;10.30;52.60;;;;;;5075006;28;19912;-68
2022/01/15 09:14:59;;;;;;;;;;;10.30;52.40;;;;;;5074712;28;19917;-62
2022/01/15 09:17:26;;;;;;;;;;;10.40;52.30;;;;;;5074473;28;19920;-63
2022/01/15 09:19:51;;;;;;;;;;;10.40;52.20;;;;;;5075183;28;20372;-64
2022/01/15 09:22:17;;;;;;;;;;;10.50;52.10;;;;;;5074950;28;19913;-65
2022/01/15 09:24:45;;;;;;;;;;;10.50;51.90;;;;;;5074712;28;19908;-64
2022/01/15 09:30:15;;;;;;;;;;;10.60;51.60;;;;;;5075064;28;19975;-62
2022/01/15 09:32:48;;;;;;;;;;;10.70;51.60;;;;;;5073775;28;19924;-65
2022/01/15 09:35:16;;;;;;;;;;;10.70;51.50;;;;;;5076648;28;19924;-66
2022/01/15 09:37:42;;;;;;;;;;;10.80;51.50;;;;;;5076829;28;19932;-69
2022/01/15 09:40:09;;;;;;;;;;;10.90;51.30;;;;;;5073326;28;19947;-67
2022/01/15 09:42:37;;;;;;;;;;;10.90;50.90;;;;;;5074495;28;20344;-61
2022/01/15 09:45:03;;;;;;;;;;;11.00;51.00;;;;;;5074249;28;20398;-62
2022/01/15 09:47:29;;;;;;;;;;;11.00;50.80;;;;;;5074386;28;19915;-64
2022/01/15 09:49:56;;;;;;;;;;;11.10;50.50;;;;;;5072975;28;20272;-63
2022/01/15 09:52:22;;;;;;;;;;;11.20;50.50;;;;;;5074432;28;19966;-62
2022/01/15 09:54:48;;;;;;;;;;;11.20;50.20;;;;;;5074433;28;19923;-63
2022/01/15 09:57:14;;;;;;;;;;;11.20;50.20;;;;;;5073864;28;19913;-61
2022/01/15 09:59:39;;;;;;;;;;;11.20;49.90;;;;;;5074331;28;20249;-63
2022/01/15 10:02:05;;;;;;;;;;;11.30;50.20;;;;;;5073690;28;20424;-62
2022/01/15 10:04:32;;;;;;;;;;;11.40;50.00;;;;;;5074161;28;19915;-64
2022/01/15 10:07:07;;;;;;;;;;;11.50;49.70;;;;;;5072249;28;20288;-64
2022/01/15 10:09:33;;;;;;;;;;;11.50;49.70;;;;;;5072175;28;19913;-65
2022/01/15 10:12:00;;;;;;;;;;;11.50;49.90;;;;;;5073802;28;19915;-66
2022/01/15 10:14:30;;;;;;;;;;;11.50;49.50;;;;;;5073898;28;19921;-66
2022/01/15 10:16:56;;;;;;;;;;;11.50;49.60;;;;;;5074385;28;19908;-64
2022/01/15 10:19:31;;;;;;;;;;;11.60;49.20;;;;;;5074031;28;20322;-62
2022/01/15 10:22:14;;;;;;;;;;;11.60;49.10;;;;;;5073868;28;19909;-65
2022/01/15 10:24:41;;;;;;;;;;;11.60;49.10;;;;;;5073962;28;19962;-64
2022/01/15 10:27:16;;;;;;;;;;;11.70;49.00;;;;;;5073585;28;19908;-65
2022/01/15 10:29:41;;;;;;;;;;;11.70;49.20;;;;;;5073558;28;20011;-63
2022/01/15 10:32:12;;;;;;;;;;;11.80;49.10;;;;;;5073688;28;19982;-64
2022/01/15 10:34:42;;;;;;;;;;;11.80;48.60;;;;;;5073231;28;20342;-63
2022/01/15 10:37:15;;;;;;;;;;;11.90;48.70;;;;;;5073552;28;19959;-62
2022/01/15 10:39:52;;;;;;;;;;;11.80;48.30;;;;;;5073801;28;19915;-65
2022/01/15 10:42:23;;;;;;;;;;;11.90;48.50;;;;;;5072276;28;19927;-63
2022/01/15 10:44:49;;;;;;;;;;;12.00;48.40;;;;;;5073576;28;19912;-62
2022/01/15 10:47:16;;;;;;;;;;;12.10;48.00;;;;;;5073813;28;20003;-63
2022/01/15 10:49:42;;;;;;;;;;;12.10;47.90;;;;;;5073981;28;19909;-67
2022/01/15 10:52:07;;;;;;;;;;;12.10;48.00;;;;;;5075961;28;19915;-67
2022/01/15 10:54:34;;;;;;;;;;;12.20;47.90;;;;;;5074674;28;19924;-67
2022/01/15 10:57:09;;;;;;;;;;;12.20;47.60;;;;;;5073702;28;19943;-68
2022/01/15 10:59:35;;;;;;;;;;;12.10;47.80;;;;;;5072405;28;19950;-64
2022/01/15 11:02:19;;;;;;;;;;;12.30;47.90;;;;;;5073120;28;19908;-68
2022/01/15 11:04:45;;;;;;;;;;;12.30;47.50;;;;;;5073114;28;19909;-66
2022/01/15 11:07:15;;;;;;;;;;;12.40;47.70;;;;;;5073244;28;20379;-63
2022/01/15 11:09:44;;;;;;;;;;;12.40;46.80;;;;;;5072551;28;19909;-63
2022/01/15 11:12:10;;;;;;;;;;;12.40;47.00;;;;;;5073179;28;20319;-64
2022/01/15 11:14:36;;;;;;;;;;;12.40;47.00;;;;;;5073129;28;19916;-63
2022/01/15 11:17:02;;;;;;;;;;;12.50;47.00;;;;;;5073210;28;19931;-66
2022/01/15 11:19:29;;;;;;;;;;;12.60;46.70;;;;;;5072887;28;19909;-68
2022/01/15 11:21:56;;;;;;;;;;;12.50;46.40;;;;;;5072966;28;19908;-66
2022/01/15 11:24:22;;;;;;;;;;;12.50;46.40;;;;;;5072851;28;19916;-64
2022/01/15 11:26:52;;;;;;;;;;;12.60;46.60;;;;;;5073113;28;19909;-63
2022/01/15 11:29:18;;;;;;;;;;;12.60;46.50;;;;;;5073188;28;20416;-64
2022/01/15 11:31:45;;;;;;;;;;;12.70;46.40;;;;;;5072770;28;20410;-65
2022/01/15 11:34:11;;;;;;;;;;;12.70;46.10;;;;;;5072719;28;19927;-67
2022/01/15 11:36:40;;;;;;;;;;;12.80;45.90;;;;;;5072924;28;19908;-67
2022/01/15 11:39:07;;;;;;;;;;;12.90;46.10;;;;;;5073139;28;19908;-64
2022/01/15 11:41:33;;;;;;;;;;;12.80;46.00;;;;;;5073024;28;19916;-66
2022/01/15 11:43:59;;;;;;;;;;;12.80;46.00;;;;;;5073170;28;20361;-68
2022/01/15 11:46:24;;;;;;;;;;;12.90;46.10;;;;;;5072936;28;19909;-64
2022/01/15 11:48:50;;;;;;;;;;;13.10;45.70;;;;;;5072688;28;20356;-65
2022/01/15 11:51:18;;;;;;;;;;;13.10;45.60;;;;;;5073140;28;20276;-66
2022/01/15 11:53:44;;;;;;;;;;;13.10;45.60;;;;;;5072844;28;20383;-66
2022/01/15 11:56:17;;;;;;;;;;;13.10;45.40;;;;;;5072975;28;20280;-66
2022/01/15 11:58:42;;;;;;;;;;;13.10;45.40;;;;;;5073084;28;19955;-65
2022/01/15 12:01:28;;;;;;;;;;;13.10;45.20;;;;;;5072611;28;19912;-63
2022/01/15 12:04:13;;;;;;;;;;;13.20;45.10;;;;;;5072734;28;19912;-69
2022/01/15 12:06:59;;;;;;;;;;;13.40;44.60;;;;;;5072900;28;19999;-66
2022/01/15 12:09:38;;;;;;;;;;;13.30;44.10;;;;;;5065231;28;20364;-67
2022/01/15 12:12:30;;;;;;;;;;;13.30;44.60;;;;;;5072661;28;20383;-67
2022/01/15 12:14:55;;;;;;;;;;;13.30;44.30;;;;;;5067101;28;19916;-68
2022/01/15 12:17:23;;;;;;;;;;;13.40;44.10;;;;;;5072644;28;20038;-65
2022/01/15 12:19:50;;;;;;;;;;;13.40;43.80;;;;;;5073369;28;19915;-66
2022/01/15 12:22:34;;;;;;;;;;;13.40;44.00;;;;;;5076356;28;19908;-65
2022/01/15 12:25:00;;;;;;;;;;;13.50;43.70;;;;;;5076257;28;20356;-66
2022/01/15 12:27:27;;;;;;;;;;;13.40;44.00;;;;;;5076055;28;19913;-67
2022/01/15 12:29:59;;;;;;;;;;;13.60;43.30;;;;;;5076298;28;19909;-65
2022/01/15 12:32:31;;;;;;;;;;;13.60;43.00;;;;;;5075993;28;19967;-66
2022/01/15 12:34:58;;;;;;;;;;;13.50;43.00;;;;;;5076366;28;19943;-64
2022/01/15 12:37:24;;;;;;;;;;;13.60;42.70;;;;;;5076721;28;19912;-67
2022/01/15 12:39:50;;;;;;;;;;;13.70;42.50;;;;;;5075937;28;19913;-64
2022/01/15 12:42:17;;;;;;;;;;;13.80;42.50;;;;;;5079491;28;19915;-63
2022/01/15 12:44:42;;;;;;;;;;;13.90;41.90;;;;;;5085383;28;19952;-65
2022/01/15 12:47:08;;;;;;;;;;;13.90;41.50;;;;;;5077331;28;19999;-65
2022/01/15 12:49:38;;;;;;;;;;;13.90;41.80;;;;;;5077202;28;19912;-65
2022/01/15 12:52:11;;;;;;;;;;;13.80;41.50;;;;;;5080696;28;19912;-68
2022/01/15 12:54:36;;;;;;;;;;;13.80;42.10;;;;;;5090973;28;20379;-64
2022/01/15 12:57:02;;;;;;;;;;;13.90;41.30;;;;;;5087775;28;19913;-64
2022/01/15 12:59:27;;;;;;;;;;;13.80;41.90;;;;;;5092081;28;19943;-64
2022/01/15 13:01:53;;;;;;;;;;;13.80;41.90;;;;;;5082389;28;20384;-67
2022/01/15 13:04:19;;;;;;;;;;;13.70;41.80;;;;;;5077327;28;19936;-67
2022/01/15 13:06:49;;;;;;;;;;;13.80;41.90;;;;;;5076093;28;19913;-64
2022/01/15 13:09:16;;;;;;;;;;;13.70;41.90;;;;;;5075857;28;19959;-65
2022/01/15 13:11:48;;;;;;;;;;;13.70;41.90;;;;;;5075957;28;19936;-65
2022/01/15 13:14:14;;;;;;;;;;;13.70;41.80;;;;;;5074864;28;19924;-64
2022/01/15 13:16:40;;;;;;;;;;;13.70;42.20;;;;;;5075183;28;19908;-64
2022/01/15 13:19:07;;;;;;;;;;;13.70;42.10;;;;;;5074801;28;19909;-66
2022/01/15 13:21:33;;;;;;;;;;;13.80;42.20;;;;;;5075000;28;19915;-66
2022/01/15 13:24:07;;;;;;;;;;;13.80;41.80;;;;;;5074948;28;19915;-65
2022/01/15 13:26:37;;;;;;;;;;;13.90;42.40;;;;;;5074933;28;19915;-66
2022/01/15 13:29:04;;;;;;;;;;;13.80;41.80;;;;;;5074763;28;19930;-62
2022/01/15 13:31:32;;;;;;;;;;;13.70;41.90;;;;;;5074145;28;19915;-63
2022/01/15 13:34:15;;;;;;;;;;;13.70;42.50;;;;;;5074332;28;19921;-63
2022/01/15 13:36:42;;;;;;;;;;;13.70;42.00;;;;;;5061519;28;20050;-63
2022/01/15 13:39:08;;;;;;;;;;;13.70;41.90;;;;;;5072355;28;20292;-65
2022/01/15 13:41:34;;;;;;;;;;;13.70;41.60;;;;;;5074508;28;19966;-65
2022/01/15 13:44:06;;;;;;;;;;;13.70;41.90;;;;;;5074182;28;19918;-65
2022/01/15 13:46:34;;;;;;;;;;;13.80;42.10;;;;;;5074354;28;20318;-64
2022/01/15 13:49:02;;;;;;;;;;;13.80;41.80;;;;;;5074290;28;19912;-62
2022/01/15 13:54:14;;;;;;;;;;;13.80;41.90;;;;;;5080514;28;19942;-64
2022/01/15 13:56:41;;;;;;;;;;;13.70;42.00;;;;;;5075776;28;20257;-63
2022/01/15 13:59:08;;;;;;;;;;;13.80;42.00;;;;;;5073384;28;20376;-65
2022/01/15 14:01:38;;;;;;;;;;;13.70;41.80;;;;;;5073112;28;19920;-64
2022/01/15 14:04:20;;;;;;;;;;;13.60;41.90;;;;;;5072974;28;19944;-63
2022/01/15 14:06:46;;;;;;;;;;;13.60;42.00;;;;;;5079142;28;19995;-63
2022/01/15 14:09:15;;;;;;;;;;;13.40;42.40;;;;;;5076025;28;20031;-64
2022/01/15 14:12:00;;;;;;;;;;;13.40;42.50;;;;;;5076295;28;20375;-62
2022/01/15 14:14:26;;;;;;;;;;;13.40;42.90;;;;;;5091093;28;20358;-63
2022/01/15 14:16:55;;;;;;;;;;;13.40;42.80;;;;;;5093115;28;19908;-64
2022/01/15 14:19:50;;;;;;;;;;;13.40;42.70;;;;;;5093233;28;19934;-66
2022/01/15 14:22:20;;;;;;;;;;;13.30;42.80;;;;;;5093090;28;20342;-63
2022/01/15 14:24:47;;;;;;;;;;;13.30;43.00;;;;;;5093164;28;20048;-64
2022/01/15 14:27:20;;;;;;;;;;;13.20;43.70;;;;;;5082380;28;19908;-65
2022/01/15 14:29:47;;;;;;;;;;;13.20;43.20;;;;;;5076410;28;19916;-62
2022/01/15 14:32:12;;;;;;;;;;;13.10;43.70;;;;;;5075980;28;19920;-63
2022/01/15 14:34:38;;;;;;;;;;;13.10;43.60;;;;;;5073064;28;20019;-64
2022/01/15 14:37:04;;;;;;;;;;;13.10;43.70;;;;;;5076259;28;19958;-63
2022/01/15 14:39:29;;;;;;;;;;;13.10;43.80;;;;;;5078802;28;19909;-63
2022/01/15 14:41:55;;;;;;;;;;;13.10;43.60;;;;;;5072889;28;19909;-63
2022/01/15 14:44:20;;;;;;;;;;;12.90;43.90;;;;;;5073148;28;19999;-63
2022/01/15 14:46:46;;;;;;;;;;;13.00;44.20;;;;;;5073073;28;20360;-63
2022/01/15 14:49:11;;;;;;;;;;;13.00;44.00;;;;;;5073258;28;20317;-65
2022/01/15 14:51:37;;;;;;;;;;;12.90;44.30;;;;;;5075655;28;20401;-65
2022/01/15 14:54:03;;;;;;;;;;;12.90;44.20;;;;;;5076179;28;20432;-65
2022/01/15 14:56:29;;;;;;;;;;;12.90;44.10;;;;;;5077169;28;19934;-63
2022/01/15 14:58:54;;;;;;;;;;;12.80;44.30;;;;;;5075789;28;19922;-64